sensor_id;sensor_type;location;lat;lon;timestamp;temperature;humidity
68912;SHT31;55953;51.650;-0.522;2022-10-15T00:01:32;12.02;89.69
68912;SHT31;55953;51.650;-0.522;2022-10-15T00:04:01;12.03;89.72
68912;SHT31;55953;51.650;-0.522;2022-10-15T00:06:29;12.03;89.66
68912;SHT31;55953;51.650;-0.522;2022-10-15T00:08:58;12.04;89.66
68912;SHT31;55953;51.650;-0.522;2022-10-15T00:11:26;12.04;89.59
68912;SHT31;55953;51.650;-0.522;2022-10-15T00:13:57;12.03;89.65
68912;SHT31;55953;51.650;-0.522;2022-10-15T00:16:27;12.08;89.72
68912;SHT31;55953;51.650;-0.522;2022-10-15T00:18:56;12.16;89.66
68912;SHT31;55953;51.650;-0.522;2022-10-15T00:21:26;12.20;89.44
68912;SHT31;55953;51.650;-0.522;2022-10-15T00:23:55;12.22;89.37
68912;SHT31;55953;51.650;-0.522;2022-10-15T00:26:24;12.28;89.28
68912;SHT31;55953;51.650;-0.522;2022-10-15T00:28:58;12.25;89.01
68912;SHT31;55953;51.650;-0.522;2022-10-15T00:31:30;12.20;89.10
68912;SHT31;55953;51.650;-0.522;2022-10-15T00:33:59;12.23;89.13
68912;SHT31;55953;51.650;-0.522;2022-10-15T00:36:30;12.22;89.01
68912;SHT31;55953;51.650;-0.522;2022-10-15T00:39:03;12.20;89.04
68912;SHT31;55953;51.650;-0.522;2022-10-15T00:41:35;12.20;89.00
68912;SHT31;55953;51.650;-0.522;2022-10-15T00:46:48;12.17;88.87
68912;SHT31;55953;51.650;-0.522;2022-10-15T00:49:32;12.14;88.88
68912;SHT31;55953;51.650;-0.522;2022-10-15T00:52:11;12.10;88.92
68912;SHT31;55953;51.650;-0.522;2022-10-15T00:54:47;12.04;88.95
68912;SHT31;55953;51.650;-0.522;2022-10-15T00:57:20;12.04;89.09
68912;SHT31;55953;51.650;-0.522;2022-10-15T00:59:50;11.99;89.01
68912;SHT31;55953;51.650;-0.522;2022-10-15T01:02:23;11.95;89.12
68912;SHT31;55953;51.650;-0.522;2022-10-15T01:04:53;11.90;89.05
68912;SHT31;55953;51.650;-0.522;2022-10-15T01:07:22;11.87;89.28
68912;SHT31;55953;51.650;-0.522;2022-10-15T01:09:50;11.91;89.33
68912;SHT31;55953;51.650;-0.522;2022-10-15T01:12:30;11.89;89.25
68912;SHT31;55953;51.650;-0.522;2022-10-15T01:18:19;11.85;89.35
68912;SHT31;55953;51.650;-0.522;2022-10-15T01:21:36;11.88;89.44
68912;SHT31;55953;51.650;-0.522;2022-10-15T01:24:15;11.83;89.27
68912;SHT31;55953;51.650;-0.522;2022-10-15T01:36:09;11.83;89.63
68912;SHT31;55953;51.650;-0.522;2022-10-15T01:39:08;11.88;89.54
68912;SHT31;55953;51.650;-0.522;2022-10-15T01:41:48;11.89;89.44
68912;SHT31;55953;51.650;-0.522;2022-10-15T01:44:38;11.88;89.35
68912;SHT31;55953;51.650;-0.522;2022-10-15T01:47:53;11.91;89.48
68912;SHT31;55953;51.650;-0.522;2022-10-15T01:50:27;11.98;89.45
68912;SHT31;55953;51.650;-0.522;2022-10-15T01:53:00;12.01;89.18
68912;SHT31;55953;51.650;-0.522;2022-10-15T01:55:32;12.02;89.10
68912;SHT31;55953;51.650;-0.522;2022-10-15T01:58:03;12.03;88.98
68912;SHT31;55953;51.650;-0.522;2022-10-15T02:00:33;12.02;88.94
68912;SHT31;55953;51.650;-0.522;2022-10-15T02:03:02;12.02;88.89
68912;SHT31;55953;51.650;-0.522;2022-10-15T02:05:32;12.02;88.79
68912;SHT31;55953;51.650;-0.522;2022-10-15T02:11:17;12.04;88.80
68912;SHT31;55953;51.650;-0.522;2022-10-15T02:13:51;12.07;88.61
68912;SHT31;55953;51.650;-0.522;2022-10-15T02:16:52;12.03;88.40
68912;SHT31;55953;51.650;-0.522;2022-10-15T02:22:31;12.08;88.49
68912;SHT31;55953;51.650;-0.522;2022-10-15T02:25:09;12.07;88.39
68912;SHT31;55953;51.650;-0.522;2022-10-15T02:27:47;12.01;88.27
68912;SHT31;55953;51.650;-0.522;2022-10-15T02:30:18;11.96;88.24
68912;SHT31;55953;51.650;-0.522;2022-10-15T02:32:49;11.94;88.37
68912;SHT31;55953;51.650;-0.522;2022-10-15T02:35:23;11.91;88.29
68912;SHT31;55953;51.650;-0.522;2022-10-15T02:37:53;11.84;88.19
68912;SHT31;55953;51.650;-0.522;2022-10-15T02:40:26;11.77;88.40
68912;SHT31;55953;51.650;-0.522;2022-10-15T02:42:58;11.78;88.55
68912;SHT31;55953;51.650;-0.522;2022-10-15T02:45:27;11.75;88.40
68912;SHT31;55953;51.650;-0.522;2022-10-15T02:47:55;11.69;88.44
68912;SHT31;55953;51.650;-0.522;2022-10-15T02:50:23;11.68;88.58
68912;SHT31;55953;51.650;-0.522;2022-10-15T02:52:52;11.68;88.53
68912;SHT31;55953;51.650;-0.522;2022-10-15T02:55:19;11.62;88.45
68912;SHT31;55953;51.650;-0.522;2022-10-15T02:57:48;11.58;88.63
68912;SHT31;55953;51.650;-0.522;2022-10-15T03:00:16;11.60;88.68
68912;SHT31;55953;51.650;-0.522;2022-10-15T03:02:45;11.59;88.60
68912;SHT31;55953;51.650;-0.522;2022-10-15T03:05:16;11.58;88.62
68912;SHT31;55953;51.650;-0.522;2022-10-15T03:07:44;11.55;88.69
68912;SHT31;55953;51.650;-0.522;2022-10-15T03:10:12;11.58;88.76
68912;SHT31;55953;51.650;-0.522;2022-10-15T03:12:40;11.61;88.60
68912;SHT31;55953;51.650;-0.522;2022-10-15T03:15:09;11.59;88.60
68912;SHT31;55953;51.650;-0.522;2022-10-15T03:17:37;11.62;88.61
68912;SHT31;55953;51.650;-0.522;2022-10-15T03:20:05;11.64;88.52
68912;SHT31;55953;51.650;-0.522;2022-10-15T03:22:35;11.67;88.48
68912;SHT31;55953;51.650;-0.522;2022-10-15T03:25:03;11.64;88.34
68912;SHT31;55953;51.650;-0.522;2022-10-15T03:27:32;11.63;88.41
68912;SHT31;55953;51.650;-0.522;2022-10-15T03:30:00;11.58;88.38
68912;SHT31;55953;51.650;-0.522;2022-10-15T03:32:29;11.61;88.40
68912;SHT31;55953;51.650;-0.522;2022-10-15T03:35:02;11.57;88.31
68912;SHT31;55953;51.650;-0.522;2022-10-15T03:37:30;11.51;88.44
68912;SHT31;55953;51.650;-0.522;2022-10-15T03:39:58;11.49;88.57
68912;SHT31;55953;51.650;-0.522;2022-10-15T03:42:27;11.49;88.62
68912;SHT31;55953;51.650;-0.522;2022-10-15T03:44:55;11.50;88.62
68912;SHT31;55953;51.650;-0.522;2022-10-15T03:47:23;11.46;88.54
68912;SHT31;55953;51.650;-0.522;2022-10-15T03:49:51;11.42;88.59
68912;SHT31;55953;51.650;-0.522;2022-10-15T03:52:19;11.43;88.79
68912;SHT31;55953;51.650;-0.522;2022-10-15T03:54:48;11.51;88.72
68912;SHT31;55953;51.650;-0.522;2022-10-15T03:57:18;11.51;88.57
68912;SHT31;55953;51.650;-0.522;2022-10-15T03:59:51;11.50;88.45
68912;SHT31;55953;51.650;-0.522;2022-10-15T04:02:20;11.47;88.48
68912;SHT31;55953;51.650;-0.522;2022-10-15T04:04:52;11.42;88.46
68912;SHT31;55953;51.650;-0.522;2022-10-15T04:07:22;11.38;88.46
68912;SHT31;55953;51.650;-0.522;2022-10-15T04:09:51;11.31;88.50
68912;SHT31;55953;51.650;-0.522;2022-10-15T04:12:21;11.27;88.51
68912;SHT31;55953;51.650;-0.522;2022-10-15T04:14:50;11.24;88.59
68912;SHT31;55953;51.650;-0.522;2022-10-15T04:17:18;11.23;88.66
68912;SHT31;55953;51.650;-0.522;2022-10-15T04:19:47;11.26;88.71
68912;SHT31;55953;51.650;-0.522;2022-10-15T04:22:15;11.29;88.60
68912;SHT31;55953;51.650;-0.522;2022-10-15T04:24:50;11.26;88.49
68912;SHT31;55953;51.650;-0.522;2022-10-15T04:27:26;11.24;88.57
68912;SHT31;55953;51.650;-0.522;2022-10-15T04:30:03;11.22;88.51
68912;SHT31;55953;51.650;-0.522;2022-10-15T04:32:31;11.25;88.54
68912;SHT31;55953;51.650;-0.522;2022-10-15T04:35:00;11.21;88.42
68912;SHT31;55953;51.650;-0.522;2022-10-15T04:37:45;11.17;88.49
68912;SHT31;55953;51.650;-0.522;2022-10-15T04:40:14;11.19;88.53
68912;SHT31;55953;51.650;-0.522;2022-10-15T04:42:43;11.16;88.47
68912;SHT31;55953;51.650;-0.522;2022-10-15T04:45:12;11.12;88.50
68912;SHT31;55953;51.650;-0.522;2022-10-15T04:47:41;11.07;88.60
68912;SHT31;55953;51.650;-0.522;2022-10-15T04:50:12;11.03;88.63
68912;SHT31;55953;51.650;-0.522;2022-10-15T04:52:59;11.02;88.75
68912;SHT31;55953;51.650;-0.522;2022-10-15T04:55:28;11.05;88.84
68912;SHT31;55953;51.650;-0.522;2022-10-15T04:57:58;11.07;88.88
68912;SHT31;55953;51.650;-0.522;2022-10-15T05:00:29;11.09;88.77
68912;SHT31;55953;51.650;-0.522;2022-10-15T05:03:24;11.08;88.80
68912;SHT31;55953;51.650;-0.522;2022-10-15T05:06:02;11.10;88.71
68912;SHT31;55953;51.650;-0.522;2022-10-15T05:08:39;11.07;88.72
68912;SHT31;55953;51.650;-0.522;2022-10-15T05:11:17;11.10;88.79
68912;SHT31;55953;51.650;-0.522;2022-10-15T05:13:53;11.12;88.82
68912;SHT31;55953;51.650;-0.522;2022-10-15T05:16:25;11.13;88.72
68912;SHT31;55953;51.650;-0.522;2022-10-15T05:18:57;11.13;88.79
68912;SHT31;55953;51.650;-0.522;2022-10-15T05:21:32;11.14;88.78
68912;SHT31;55953;51.650;-0.522;2022-10-15T05:24:04;11.13;88.84
68912;SHT31;55953;51.650;-0.522;2022-10-15T05:26:53;11.13;88.88
68912;SHT31;55953;51.650;-0.522;2022-10-15T05:29:21;11.11;88.85
68912;SHT31;55953;51.650;-0.522;2022-10-15T05:31:50;11.10;88.94
68912;SHT31;55953;51.650;-0.522;2022-10-15T05:34:23;11.10;88.90
68912;SHT31;55953;51.650;-0.522;2022-10-15T05:36:57;11.08;88.90
68912;SHT31;55953;51.650;-0.522;2022-10-15T05:39:25;11.08;88.91
68912;SHT31;55953;51.650;-0.522;2022-10-15T05:41:54;11.09;88.98
68912;SHT31;55953;51.650;-0.522;2022-10-15T05:44:37;11.14;88.96
68912;SHT31;55953;51.650;-0.522;2022-10-15T05:47:05;11.13;88.95
68912;SHT31;55953;51.650;-0.522;2022-10-15T05:49:38;11.12;88.96
68912;SHT31;55953;51.650;-0.522;2022-10-15T05:52:11;11.13;89.10
68912;SHT31;55953;51.650;-0.522;2022-10-15T05:55:02;11.15;89.07
68912;SHT31;55953;51.650;-0.522;2022-10-15T05:57:30;11.12;89.14
68912;SHT31;55953;51.650;-0.522;2022-10-15T05:59:59;11.14;89.30
68912;SHT31;55953;51.650;-0.522;2022-10-15T06:02:26;11.16;89.27
68912;SHT31;55953;51.650;-0.522;2022-10-15T06:04:55;11.15;89.31
68912;SHT31;55953;51.650;-0.522;2022-10-15T06:07:23;11.19;89.28
68912;SHT31;55953;51.650;-0.522;2022-10-15T06:09:52;11.19;89.19
68912;SHT31;55953;51.650;-0.522;2022-10-15T06:12:23;11.17;89.18
68912;SHT31;55953;51.650;-0.522;2022-10-15T06:14:52;11.19;89.20
68912;SHT31;55953;51.650;-0.522;2022-10-15T06:17:20;11.21;89.27
68912;SHT31;55953;51.650;-0.522;2022-10-15T06:19:50;11.23;89.28
68912;SHT31;55953;51.650;-0.522;2022-10-15T06:22:18;11.20;89.41
68912;SHT31;55953;51.650;-0.522;2022-10-15T06:24:46;11.21;89.60
68912;SHT31;55953;51.650;-0.522;2022-10-15T06:27:14;11.23;89.78
68912;SHT31;55953;51.650;-0.522;2022-10-15T06:29:42;11.26;89.78
68912;SHT31;55953;51.650;-0.522;2022-10-15T06:32:10;11.26;89.87
68912;SHT31;55953;51.650;-0.522;2022-10-15T06:34:42;11.26;89.92
68912;SHT31;55953;51.650;-0.522;2022-10-15T06:37:11;11.28;90.00
68912;SHT31;55953;51.650;-0.522;2022-10-15T06:39:39;11.31;90.03
68912;SHT31;55953;51.650;-0.522;2022-10-15T06:42:07;11.31;89.93
68912;SHT31;55953;51.650;-0.522;2022-10-15T06:44:38;11.34;89.98
68912;SHT31;55953;51.650;-0.522;2022-10-15T06:47:07;11.34;89.93
68912;SHT31;55953;51.650;-0.522;2022-10-15T06:49:35;11.35;89.96
68912;SHT31;55953;51.650;-0.522;2022-10-15T06:52:03;11.35;89.96
68912;SHT31;55953;51.650;-0.522;2022-10-15T06:54:31;11.34;89.91
68912;SHT31;55953;51.650;-0.522;2022-10-15T06:56:59;11.30;89.95
68912;SHT31;55953;51.650;-0.522;2022-10-15T06:59:27;11.28;90.05
68912;SHT31;55953;51.650;-0.522;2022-10-15T07:01:57;11.28;90.14
68912;SHT31;55953;51.650;-0.522;2022-10-15T07:04:26;11.28;90.23
68912;SHT31;55953;51.650;-0.522;2022-10-15T07:06:54;11.30;90.25
68912;SHT31;55953;51.650;-0.522;2022-10-15T07:09:23;11.36;90.36
68912;SHT31;55953;51.650;-0.522;2022-10-15T07:11:52;11.39;90.39
68912;SHT31;55953;51.650;-0.522;2022-10-15T07:14:20;11.42;90.50
68912;SHT31;55953;51.650;-0.522;2022-10-15T07:16:48;11.45;90.61
68912;SHT31;55953;51.650;-0.522;2022-10-15T07:19:16;11.50;90.66
68912;SHT31;55953;51.650;-0.522;2022-10-15T07:21:45;11.55;90.72
68912;SHT31;55953;51.650;-0.522;2022-10-15T07:24:14;11.64;90.83
68912;SHT31;55953;51.650;-0.522;2022-10-15T07:26:42;11.72;90.75
68912;SHT31;55953;51.650;-0.522;2022-10-15T07:29:10;11.76;90.65
68912;SHT31;55953;51.650;-0.522;2022-10-15T07:31:38;11.79;90.69
68912;SHT31;55953;51.650;-0.522;2022-10-15T07:34:06;11.80;90.63
68912;SHT31;55953;51.650;-0.522;2022-10-15T07:36:34;11.81;90.61
68912;SHT31;55953;51.650;-0.522;2022-10-15T07:39:02;11.80;90.73
68912;SHT31;55953;51.650;-0.522;2022-10-15T07:41:31;11.84;90.81
68912;SHT31;55953;51.650;-0.522;2022-10-15T07:43:59;11.89;90.83
68912;SHT31;55953;51.650;-0.522;2022-10-15T07:46:27;11.97;90.82
68912;SHT31;55953;51.650;-0.522;2022-10-15T07:48:55;12.08;90.83
68912;SHT31;55953;51.650;-0.522;2022-10-15T07:51:23;12.15;90.77
68912;SHT31;55953;51.650;-0.522;2022-10-15T07:53:51;12.23;90.69
68912;SHT31;55953;51.650;-0.522;2022-10-15T07:56:18;12.28;90.60
68912;SHT31;55953;51.650;-0.522;2022-10-15T07:58:47;12.33;90.55
68912;SHT31;55953;51.650;-0.522;2022-10-15T08:01:19;12.36;90.43
68912;SHT31;55953;51.650;-0.522;2022-10-15T08:03:47;12.37;90.29
68912;SHT31;55953;51.650;-0.522;2022-10-15T08:06:15;12.35;90.19
68912;SHT31;55953;51.650;-0.522;2022-10-15T08:08:45;12.31;90.18
68912;SHT31;55953;51.650;-0.522;2022-10-15T08:11:14;12.29;90.15
68912;SHT31;55953;51.650;-0.522;2022-10-15T08:13:43;12.28;90.18
68912;SHT31;55953;51.650;-0.522;2022-10-15T08:16:14;12.27;90.20
68912;SHT31;55953;51.650;-0.522;2022-10-15T08:18:48;12.29;90.21
68912;SHT31;55953;51.650;-0.522;2022-10-15T08:21:16;12.31;90.18
68912;SHT31;55953;51.650;-0.522;2022-10-15T08:23:43;12.32;90.19
68912;SHT31;55953;51.650;-0.522;2022-10-15T08:26:11;12.33;90.21
68912;SHT31;55953;51.650;-0.522;2022-10-15T08:28:39;12.34;90.26
68912;SHT31;55953;51.650;-0.522;2022-10-15T08:31:07;12.37;90.29
68912;SHT31;55953;51.650;-0.522;2022-10-15T08:33:35;12.44;90.33
68912;SHT31;55953;51.650;-0.522;2022-10-15T08:36:05;12.49;90.33
68912;SHT31;55953;51.650;-0.522;2022-10-15T08:38:34;12.53;90.32
68912;SHT31;55953;51.650;-0.522;2022-10-15T08:41:04;12.58;90.34
68912;SHT31;55953;51.650;-0.522;2022-10-15T08:43:46;12.65;90.33
68912;SHT31;55953;51.650;-0.522;2022-10-15T08:46:19;12.70;90.34
68912;SHT31;55953;51.650;-0.522;2022-10-15T08:48:57;12.74;90.30
68912;SHT31;55953;51.650;-0.522;2022-10-15T08:51:39;12.78;90.35
68912;SHT31;55953;51.650;-0.522;2022-10-15T08:54:16;12.81;90.16
68912;SHT31;55953;51.650;-0.522;2022-10-15T08:56:50;12.84;90.10
68912;SHT31;55953;51.650;-0.522;2022-10-15T08:59:39;12.88;89.93
68912;SHT31;55953;51.650;-0.522;2022-10-15T09:02:27;12.93;89.58
68912;SHT31;55953;51.650;-0.522;2022-10-15T09:11:06;13.05;88.84
68912;SHT31;55953;51.650;-0.522;2022-10-15T09:13:39;13.06;88.60
68912;SHT31;55953;51.650;-0.522;2022-10-15T09:16:14;13.11;88.48
68912;SHT31;55953;51.650;-0.522;2022-10-15T09:18:49;13.16;88.21
68912;SHT31;55953;51.650;-0.522;2022-10-15T09:21:19;13.19;87.75
68912;SHT31;55953;51.650;-0.522;2022-10-15T09:24:00;13.21;87.02
68912;SHT31;55953;51.650;-0.522;2022-10-15T09:26:32;13.22;87.05
68912;SHT31;55953;51.650;-0.522;2022-10-15T09:38:20;13.41;86.42
68912;SHT31;55953;51.650;-0.522;2022-10-15T09:44:12;13.61;85.68
68912;SHT31;55953;51.650;-0.522;2022-10-15T09:46:48;13.70;84.77
68912;SHT31;55953;51.650;-0.522;2022-10-15T09:49:25;13.77;84.62
68912;SHT31;55953;51.650;-0.522;2022-10-15T09:52:05;13.88;83.76
68912;SHT31;55953;51.650;-0.522;2022-10-15T09:55:06;13.91;83.02
68912;SHT31;55953;51.650;-0.522;2022-10-15T09:58:29;14.04;82.20
68912;SHT31;55953;51.650;-0.522;2022-10-15T10:01:25;14.23;81.90
68912;SHT31;55953;51.650;-0.522;2022-10-15T10:04:12;14.34;81.88
68912;SHT31;55953;51.650;-0.522;2022-10-15T10:06:53;14.46;80.90
68912;SHT31;55953;51.650;-0.522;2022-10-15T10:09:26;14.61;81.02
68912;SHT31;55953;51.650;-0.522;2022-10-15T10:12:30;14.78;80.99
68912;SHT31;55953;51.650;-0.522;2022-10-15T10:15:06;14.89;80.37
68912;SHT31;55953;51.650;-0.522;2022-10-15T10:18:01;14.92;79.28
68912;SHT31;55953;51.650;-0.522;2022-10-15T10:20:33;14.96;79.57
68912;SHT31;55953;51.650;-0.522;2022-10-15T10:23:02;15.00;79.49
68912;SHT31;55953;51.650;-0.522;2022-10-15T10:26:06;15.06;79.60
68912;SHT31;55953;51.650;-0.522;2022-10-15T10:28:43;15.08;79.38
68912;SHT31;55953;51.650;-0.522;2022-10-15T10:31:27;15.16;78.87
68912;SHT31;55953;51.650;-0.522;2022-10-15T10:34:00;15.26;78.47
68912;SHT31;55953;51.650;-0.522;2022-10-15T10:36:30;15.27;78.18
68912;SHT31;55953;51.650;-0.522;2022-10-15T10:42:01;15.11;77.02
68912;SHT31;55953;51.650;-0.522;2022-10-15T10:44:37;15.09;77.98
68912;SHT31;55953;51.650;-0.522;2022-10-15T10:47:17;15.11;77.74
68912;SHT31;55953;51.650;-0.522;2022-10-15T10:49:51;15.26;78.39
68912;SHT31;55953;51.650;-0.522;2022-10-15T10:52:36;15.40;78.92
68912;SHT31;55953;51.650;-0.522;2022-10-15T10:55:38;15.47;78.60
68912;SHT31;55953;51.650;-0.522;2022-10-15T10:58:05;15.50;77.92
68912;SHT31;55953;51.650;-0.522;2022-10-15T11:00:51;15.49;77.56
68912;SHT31;55953;51.650;-0.522;2022-10-15T11:06:19;15.39;77.42
68912;SHT31;55953;51.650;-0.522;2022-10-15T11:09:05;15.29;78.07
68912;SHT31;55953;51.650;-0.522;2022-10-15T11:17:53;15.00;78.97
68912;SHT31;55953;51.650;-0.522;2022-10-15T11:23:48;15.06;79.45
68912;SHT31;55953;51.650;-0.522;2022-10-15T11:29:55;15.52;79.32
68912;SHT31;55953;51.650;-0.522;2022-10-15T11:35:53;15.90;77.44
68912;SHT31;55953;51.650;-0.522;2022-10-15T11:56:01;16.60;73.92
68912;SHT31;55953;51.650;-0.522;2022-10-15T12:01:38;16.49;72.66
68912;SHT31;55953;51.650;-0.522;2022-10-15T12:04:32;16.43;72.65
68912;SHT31;55953;51.650;-0.522;2022-10-15T12:07:20;16.57;73.29
68912;SHT31;55953;51.650;-0.522;2022-10-15T12:09:53;16.77;72.13
68912;SHT31;55953;51.650;-0.522;2022-10-15T12:24:05;16.39;68.49
68912;SHT31;55953;51.650;-0.522;2022-10-15T12:32:37;16.30;68.68
68912;SHT31;55953;51.650;-0.522;2022-10-15T12:35:23;16.23;69.03
68912;SHT31;55953;51.650;-0.522;2022-10-15T12:37:57;16.25;69.27
68912;SHT31;55953;51.650;-0.522;2022-10-15T12:40:47;16.28;67.72
68912;SHT31;55953;51.650;-0.522;2022-10-15T12:43:27;16.31;67.31
68912;SHT31;55953;51.650;-0.522;2022-10-15T12:46:02;16.38;66.46
68912;SHT31;55953;51.650;-0.522;2022-10-15T12:48:37;16.44;65.88
68912;SHT31;55953;51.650;-0.522;2022-10-15T12:53:51;16.83;67.04
68912;SHT31;55953;51.650;-0.522;2022-10-15T12:56:36;16.97;65.91
68912;SHT31;55953;51.650;-0.522;2022-10-15T12:59:28;17.09;66.02
68912;SHT31;55953;51.650;-0.522;2022-10-15T13:05:30;17.23;65.98
68912;SHT31;55953;51.650;-0.522;2022-10-15T13:08:05;17.27;64.96
68912;SHT31;55953;51.650;-0.522;2022-10-15T13:10:47;17.33;65.82
68912;SHT31;55953;51.650;-0.522;2022-10-15T13:13:22;17.39;65.57
68912;SHT31;55953;51.650;-0.522;2022-10-15T13:15:59;17.40;65.08
68912;SHT31;55953;51.650;-0.522;2022-10-15T13:18:33;17.39;64.87
68912;SHT31;55953;51.650;-0.522;2022-10-15T13:21:02;17.37;64.53
68912;SHT31;55953;51.650;-0.522;2022-10-15T13:23:35;17.33;64.93
68912;SHT31;55953;51.650;-0.522;2022-10-15T13:26:19;17.30;65.64
68912;SHT31;55953;51.650;-0.522;2022-10-15T13:28:56;17.27;65.39
68912;SHT31;55953;51.650;-0.522;2022-10-15T13:34:09;17.24;66.00
68912;SHT31;55953;51.650;-0.522;2022-10-15T13:36:46;17.15;65.42
68912;SHT31;55953;51.650;-0.522;2022-10-15T13:39:19;17.10;66.45
68912;SHT31;55953;51.650;-0.522;2022-10-15T13:42:02;17.09;67.18
68912;SHT31;55953;51.650;-0.522;2022-10-15T13:53:13;17.03;68.57
68912;SHT31;55953;51.650;-0.522;2022-10-15T13:55:50;17.08;69.21
68912;SHT31;55953;51.650;-0.522;2022-10-15T13:58:26;17.14;68.83
68912;SHT31;55953;51.650;-0.522;2022-10-15T14:03:27;17.11;68.84
68912;SHT31;55953;51.650;-0.522;2022-10-15T14:06:10;17.08;68.43
68912;SHT31;55953;51.650;-0.522;2022-10-15T14:08:50;17.14;68.63
68912;SHT31;55953;51.650;-0.522;2022-10-15T14:11:23;17.22;68.02
68912;SHT31;55953;51.650;-0.522;2022-10-15T14:13:53;17.18;67.37
68912;SHT31;55953;51.650;-0.522;2022-10-15T14:19:15;17.06;67.09
68912;SHT31;55953;51.650;-0.522;2022-10-15T14:21:48;16.92;66.22
68912;SHT31;55953;51.650;-0.522;2022-10-15T14:24:19;16.83;65.96
68912;SHT31;55953;51.650;-0.522;2022-10-15T14:26:51;16.69;66.02
68912;SHT31;55953;51.650;-0.522;2022-10-15T14:31:55;16.39;65.83
68912;SHT31;55953;51.650;-0.522;2022-10-15T14:42:41;16.08;67.13
68912;SHT31;55953;51.650;-0.522;2022-10-15T14:45:40;16.05;67.73
68912;SHT31;55953;51.650;-0.522;2022-10-15T14:48:27;16.09;68.03
68912;SHT31;55953;51.650;-0.522;2022-10-15T14:51:05;16.13;68.25
68912;SHT31;55953;51.650;-0.522;2022-10-15T14:53:43;16.14;68.35
68912;SHT31;55953;51.650;-0.522;2022-10-15T14:56:15;16.12;68.40
68912;SHT31;55953;51.650;-0.522;2022-10-15T14:58:51;16.14;68.71
68912;SHT31;55953;51.650;-0.522;2022-10-15T15:01:23;16.14;68.56
68912;SHT31;55953;51.650;-0.522;2022-10-15T15:03:54;16.15;69.47
68912;SHT31;55953;51.650;-0.522;2022-10-15T15:06:23;16.15;69.63
68912;SHT31;55953;51.650;-0.522;2022-10-15T15:08:51;16.07;68.87
68912;SHT31;55953;51.650;-0.522;2022-10-15T15:11:22;16.00;69.47
68912;SHT31;55953;51.650;-0.522;2022-10-15T15:13:52;15.93;70.05
68912;SHT31;55953;51.650;-0.522;2022-10-15T15:16:22;15.81;70.23
68912;SHT31;55953;51.650;-0.522;2022-10-15T15:18:49;15.63;71.28
68912;SHT31;55953;51.650;-0.522;2022-10-15T15:21:21;15.43;71.69
68912;SHT31;55953;51.650;-0.522;2022-10-15T15:23:50;15.27;71.51
68912;SHT31;55953;51.650;-0.522;2022-10-15T15:26:18;15.18;71.74
68912;SHT31;55953;51.650;-0.522;2022-10-15T15:28:46;15.13;71.98
68912;SHT31;55953;51.650;-0.522;2022-10-15T15:31:15;15.21;71.74
68912;SHT31;55953;51.650;-0.522;2022-10-15T15:33:45;15.38;71.66
68912;SHT31;55953;51.650;-0.522;2022-10-15T15:36:13;15.51;71.20
68912;SHT31;55953;51.650;-0.522;2022-10-15T15:38:50;15.58;71.30
68912;SHT31;55953;51.650;-0.522;2022-10-15T15:41:19;15.60;70.74
68912;SHT31;55953;51.650;-0.522;2022-10-15T15:43:50;15.60;70.69
68912;SHT31;55953;51.650;-0.522;2022-10-15T15:46:21;15.53;70.38
68912;SHT31;55953;51.650;-0.522;2022-10-15T15:48:49;15.43;70.20
68912;SHT31;55953;51.650;-0.522;2022-10-15T15:53:51;15.25;70.11
68912;SHT31;55953;51.650;-0.522;2022-10-15T15:56:20;15.14;69.93
68912;SHT31;55953;51.650;-0.522;2022-10-15T15:58:49;15.01;69.40
68912;SHT31;55953;51.650;-0.522;2022-10-15T16:01:18;14.87;69.66
68912;SHT31;55953;51.650;-0.522;2022-10-15T16:03:47;14.75;69.72
68912;SHT31;55953;51.650;-0.522;2022-10-15T16:06:15;14.65;69.70
68912;SHT31;55953;51.650;-0.522;2022-10-15T16:08:43;14.54;69.48
68912;SHT31;55953;51.650;-0.522;2022-10-15T16:11:11;14.44;69.93
68912;SHT31;55953;51.650;-0.522;2022-10-15T16:13:39;14.33;70.29
68912;SHT31;55953;51.650;-0.522;2022-10-15T16:16:09;14.24;70.74
68912;SHT31;55953;51.650;-0.522;2022-10-15T16:18:38;14.19;71.46
68912;SHT31;55953;51.650;-0.522;2022-10-15T16:21:06;14.15;71.86
68912;SHT31;55953;51.650;-0.522;2022-10-15T16:23:34;14.11;72.06
68912;SHT31;55953;51.650;-0.522;2022-10-15T16:26:02;14.07;72.41
68912;SHT31;55953;51.650;-0.522;2022-10-15T16:28:30;14.02;72.76
68912;SHT31;55953;51.650;-0.522;2022-10-15T16:33:55;13.97;73.37
68912;SHT31;55953;51.650;-0.522;2022-10-15T16:36:24;13.94;73.54
68912;SHT31;55953;51.650;-0.522;2022-10-15T16:38:52;13.89;73.85
68912;SHT31;55953;51.650;-0.522;2022-10-15T16:41:20;13.85;74.03
68912;SHT31;55953;51.650;-0.522;2022-10-15T16:43:48;13.82;74.24
68912;SHT31;55953;51.650;-0.522;2022-10-15T16:46:17;13.77;74.53
68912;SHT31;55953;51.650;-0.522;2022-10-15T16:48:50;13.74;74.88
68912;SHT31;55953;51.650;-0.522;2022-10-15T16:51:21;13.65;75.13
68912;SHT31;55953;51.650;-0.522;2022-10-15T16:53:51;13.58;75.55
68912;SHT31;55953;51.650;-0.522;2022-10-15T16:56:20;13.50;75.82
68912;SHT31;55953;51.650;-0.522;2022-10-15T16:58:51;13.44;76.17
68912;SHT31;55953;51.650;-0.522;2022-10-15T17:01:24;13.38;76.19
68912;SHT31;55953;51.650;-0.522;2022-10-15T17:03:58;13.33;76.43
68912;SHT31;55953;51.650;-0.522;2022-10-15T17:06:27;13.26;76.64
68912;SHT31;55953;51.650;-0.522;2022-10-15T17:08:57;13.20;76.73
68912;SHT31;55953;51.650;-0.522;2022-10-15T17:11:32;13.17;77.03
68912;SHT31;55953;51.650;-0.522;2022-10-15T17:14:05;13.09;77.19
68912;SHT31;55953;51.650;-0.522;2022-10-15T17:16:46;13.04;77.14
68912;SHT31;55953;51.650;-0.522;2022-10-15T17:19:21;12.99;77.14
68912;SHT31;55953;51.650;-0.522;2022-10-15T17:21:58;12.95;77.41
68912;SHT31;55953;51.650;-0.522;2022-10-15T17:24:26;12.89;77.04
68912;SHT31;55953;51.650;-0.522;2022-10-15T17:26:54;12.89;76.97
68912;SHT31;55953;51.650;-0.522;2022-10-15T17:29:24;12.87;77.01
68912;SHT31;55953;51.650;-0.522;2022-10-15T17:32:00;12.81;77.01
68912;SHT31;55953;51.650;-0.522;2022-10-15T17:34:29;12.81;76.95
68912;SHT31;55953;51.650;-0.522;2022-10-15T17:36:57;12.79;77.10
68912;SHT31;55953;51.650;-0.522;2022-10-15T17:39:25;12.77;77.02
68912;SHT31;55953;51.650;-0.522;2022-10-15T17:41:53;12.75;77.30
68912;SHT31;55953;51.650;-0.522;2022-10-15T17:44:21;12.75;77.24
68912;SHT31;55953;51.650;-0.522;2022-10-15T17:46:49;12.73;77.42
68912;SHT31;55953;51.650;-0.522;2022-10-15T17:49:25;12.73;77.33
68912;SHT31;55953;51.650;-0.522;2022-10-15T17:51:58;12.70;77.44
68912;SHT31;55953;51.650;-0.522;2022-10-15T17:54:26;12.69;77.48
68912;SHT31;55953;51.650;-0.522;2022-10-15T17:56:54;12.71;77.24
68912;SHT31;55953;51.650;-0.522;2022-10-15T17:59:22;12.74;77.20
68912;SHT31;55953;51.650;-0.522;2022-10-15T18:01:51;12.72;77.36
68912;SHT31;55953;51.650;-0.522;2022-10-15T18:04:26;12.70;77.45
68912;SHT31;55953;51.650;-0.522;2022-10-15T18:06:55;12.66;77.38
68912;SHT31;55953;51.650;-0.522;2022-10-15T18:09:24;12.65;77.44
68912;SHT31;55953;51.650;-0.522;2022-10-15T18:11:58;12.62;77.50